Time;durP1;ratioP1;P1;durP2;ratioP2;P2;SDS_P1;SDS_P2;PMS_P1;PMS_P2;Temp;Humidity;BMP_temperature;BMP_pressure;BME280_temperature;BME280_humidity;BME280_pressure;Samples;Min_cycle;Max_cycle;Signal;HPM_P1;HPM_P2
2023/08/03 00:02:27;;;;;;;6.72;1.60;;;19.30;99.90;;;;;;5004054;28;20202;-30
2023/08/03 00:04:57;;;;;;;3.10;1.30;;;19.30;99.90;;;;;;5005118;28;20220;-30
2023/08/03 00:07:27;;;;;;;7.23;2.00;;;19.30;99.90;;;;;;5003649;28;20217;-30
2023/08/03 00:09:54;;;;;;;7.07;2.08;;;19.30;99.90;;;;;;5020887;28;20205;-30
2023/08/03 00:12:22;;;;;;;6.53;1.80;;;19.30;99.90;;;;;;5005582;28;20248;-30
2023/08/03 00:14:54;;;;;;;7.35;2.33;;;19.40;99.90;;;;;;5020153;28;20312;-29
2023/08/03 00:17:21;;;;;;;8.10;2.00;;;19.30;99.90;;;;;;5004124;28;20217;-30
2023/08/03 00:19:50;;;;;;;10.47;2.97;;;19.40;99.90;;;;;;5005871;28;20206;-30
2023/08/03 00:22:20;;;;;;;7.65;1.90;;;19.30;99.90;;;;;;5020760;28;20228;-31
2023/08/03 00:24:50;;;;;;;8.70;2.35;;;19.30;99.90;;;;;;5008578;28;20213;-30
2023/08/03 00:27:21;;;;;;;6.88;2.10;;;19.40;99.90;;;;;;5007344;28;20287;-30
2023/08/03 00:29:49;;;;;;;7.68;2.35;;;19.40;99.90;;;;;;5007183;28;20264;-31
2023/08/03 00:32:18;;;;;;;8.73;2.38;;;19.40;99.90;;;;;;5005422;28;20197;-30
2023/08/03 00:34:51;;;;;;;6.50;2.20;;;19.40;99.90;;;;;;5005555;28;20224;-30
2023/08/03 00:37:20;;;;;;;8.65;2.35;;;19.40;99.90;;;;;;5005490;28;20308;-30
2023/08/03 00:39:48;;;;;;;7.45;2.40;;;19.40;99.90;;;;;;5005898;28;20201;-30
2023/08/03 00:42:19;;;;;;;8.03;2.10;;;19.40;99.90;;;;;;5006020;28;20284;-30
2023/08/03 00:44:49;;;;;;;8.02;2.47;;;19.40;99.90;;;;;;5006622;28;20335;-30
2023/08/03 00:47:18;;;;;;;7.90;2.55;;;19.40;99.90;;;;;;5019683;28;20197;-30
2023/08/03 00:49:51;;;;;;;11.45;2.70;;;19.40;99.90;;;;;;5004074;28;20213;-30
2023/08/03 00:52:20;;;;;;;6.85;2.33;;;19.40;99.90;;;;;;5003892;28;20264;-30
2023/08/03 00:54:50;;;;;;;6.40;2.30;;;19.40;99.90;;;;;;5005150;28;20256;-30
2023/08/03 00:57:20;;;;;;;10.13;2.40;;;19.40;99.90;;;;;;5019941;28;20202;-30
2023/08/03 00:59:47;;;;;;;9.90;2.53;;;19.40;99.90;;;;;;5005166;28;20264;-30
2023/08/03 01:02:15;;;;;;;9.50;2.13;;;19.40;99.90;;;;;;5007056;28;20210;-31
2023/08/03 01:04:43;;;;;;;9.05;2.20;;;19.40;99.90;;;;;;5013514;28;20209;-31
2023/08/03 01:07:12;;;;;;;9.52;2.13;;;19.40;99.90;;;;;;5003041;28;20568;-31
2023/08/03 01:09:41;;;;;;;8.30;2.47;;;19.40;99.90;;;;;;5019809;28;20286;-30
2023/08/03 01:12:12;;;;;;;8.73;2.50;;;19.40;99.90;;;;;;5023202;28;20212;-30
2023/08/03 01:14:39;;;;;;;6.72;2.00;;;19.40;99.90;;;;;;5024731;28;20302;-30
2023/08/03 01:17:06;;;;;;;9.15;2.35;;;19.40;99.90;;;;;;5015504;28;20725;-30
2023/08/03 01:19:33;;;;;;;6.90;2.17;;;19.40;99.90;;;;;;5014072;28;20232;-30
2023/08/03 01:22:02;;;;;;;9.32;2.72;;;19.40;99.90;;;;;;5028723;28;20201;-31
2023/08/03 01:24:29;;;;;;;11.02;2.40;;;19.40;99.90;;;;;;5027351;28;20204;-30
2023/08/03 01:27:04;;;;;;;6.80;2.20;;;19.40;99.90;;;;;;5027850;28;20702;-30
2023/08/03 01:29:31;;;;;;;6.55;2.10;;;19.40;99.90;;;;;;5028193;28;20192;-30
2023/08/03 01:31:59;;;;;;;8.85;2.30;;;19.40;99.90;;;;;;5010782;28;20207;-30
2023/08/03 01:34:27;;;;;;;12.32;2.10;;;19.40;99.90;;;;;;5026169;28;20304;-30
2023/08/03 01:36:56;;;;;;;9.68;2.50;;;19.40;99.90;;;;;;5010038;28;20197;-30
2023/08/03 01:39:27;;;;;;;5.95;2.40;;;19.40;99.90;;;;;;5025596;28;20545;-30
2023/08/03 01:41:54;;;;;;;9.57;2.33;;;19.40;99.90;;;;;;5027906;28;20205;-30
2023/08/03 01:44:28;;;;;;;7.57;2.35;;;19.40;99.90;;;;;;5027874;28;20702;-30
2023/08/03 01:46:57;;;;;;;7.95;2.30;;;19.40;99.90;;;;;;5027918;28;20212;-30
2023/08/03 01:49:29;;;;;;;6.18;1.90;;;19.40;99.90;;;;;;5027682;28;20193;-30
2023/08/03 01:51:58;;;;;;;7.18;2.40;;;19.40;99.90;;;;;;5026778;28;20221;-30
2023/08/03 01:54:28;;;;;;;8.60;2.10;;;19.30;99.90;;;;;;5027107;28;20729;-30
2023/08/03 01:56:55;;;;;;;7.60;1.80;;;19.30;99.90;;;;;;5026184;28;20648;-29
2023/08/03 01:59:22;;;;;;;6.18;2.00;;;19.40;99.90;;;;;;5026428;28;20709;-30
2023/08/03 02:01:50;;;;;;;6.70;1.55;;;19.40;99.90;;;;;;5040669;28;20209;-30
2023/08/03 02:04:24;;;;;;;6.00;1.40;;;19.40;99.90;;;;;;5045297;28;20888;-30
2023/08/03 02:07:01;;;;;;;6.15;1.85;;;19.40;99.90;;;;;;5046268;28;20199;-30
2023/08/03 02:09:31;;;;;;;9.20;2.55;;;19.40;99.90;;;;;;5046485;28;21007;-30
2023/08/03 02:11:58;;;;;;;8.10;2.00;;;19.40;99.90;;;;;;5044610;28;20572;-30
2023/08/03 02:14:25;;;;;;;6.00;1.90;;;19.40;99.90;;;;;;5027444;28;20216;-30
2023/08/03 02:16:52;;;;;;;7.15;1.58;;;19.40;99.90;;;;;;5028801;28;20753;-30
2023/08/03 02:19:22;;;;;;;8.02;2.10;;;19.40;99.90;;;;;;5027302;28;20201;-30
2023/08/03 02:21:49;;;;;;;7.90;2.25;;;19.40;99.90;;;;;;5027436;28;20311;-30
2023/08/03 02:24:16;;;;;;;4.78;2.13;;;19.40;99.90;;;;;;5025557;28;20203;-30
2023/08/03 02:26:48;;;;;;;7.28;1.88;;;19.40;99.90;;;;;;5027424;28;20229;-30
2023/08/03 02:29:18;;;;;;;5.65;1.88;;;19.40;99.90;;;;;;5027350;28;20205;-30
2023/08/03 02:31:45;;;;;;;3.72;1.70;;;19.40;99.90;;;;;;5026764;28;20744;-30
2023/08/03 02:34:12;;;;;;;5.90;1.85;;;19.40;99.90;;;;;;5026522;28;20201;-30
2023/08/03 02:36:40;;;;;;;6.93;1.70;;;19.40;99.90;;;;;;5025104;28;20486;-30
2023/08/03 02:39:09;;;;;;;4.60;1.67;;;19.40;99.90;;;;;;5025755;28;20245;-30
2023/08/03 02:41:38;;;;;;;5.18;1.80;;;19.40;99.90;;;;;;5027256;28;20205;-31
2023/08/03 02:44:10;;;;;;;7.45;1.58;;;19.40;99.90;;;;;;5026628;28;20219;-30
2023/08/03 02:46:37;;;;;;;5.60;1.67;;;19.40;99.90;;;;;;5026772;28;20629;-29
2023/08/03 02:49:05;;;;;;;6.05;1.63;;;19.40;99.90;;;;;;5026310;28;20266;-30
2023/08/03 02:51:34;;;;;;;3.70;1.60;;;19.40;99.90;;;;;;5025178;28;20224;-30
2023/08/03 02:54:03;;;;;;;5.40;1.63;;;19.40;99.90;;;;;;5024520;28;20244;-30
2023/08/03 02:56:32;;;;;;;5.15;1.70;;;19.40;99.90;;;;;;5026536;28;20231;-30
2023/08/03 02:59:02;;;;;;;4.32;1.27;;;19.40;99.90;;;;;;5026138;28;20201;-30
2023/08/03 03:01:32;;;;;;;5.35;1.50;;;19.40;99.90;;;;;;5024694;28;20336;-30
2023/08/03 03:04:00;;;;;;;5.35;1.75;;;19.40;99.90;;;;;;5025194;28;20243;-30
2023/08/03 03:06:27;;;;;;;8.27;1.43;;;19.40;99.90;;;;;;5024237;28;20841;-30
2023/08/03 03:08:54;;;;;;;7.60;1.90;;;19.40;99.90;;;;;;5024846;28;20791;-30
2023/08/03 03:11:21;;;;;;;4.05;1.65;;;19.40;99.90;;;;;;5026436;28;20212;-30
2023/08/03 03:13:53;;;;;;;7.18;1.67;;;19.40;99.90;;;;;;5027903;28;20586;-30
2023/08/03 03:16:25;;;;;;;4.07;1.60;;;19.40;99.90;;;;;;5027631;28;20225;-30
2023/08/03 03:18:53;;;;;;;8.23;2.05;;;19.40;99.90;;;;;;5026136;28;20275;-30
2023/08/03 03:21:22;;;;;;;4.03;1.55;;;19.40;99.90;;;;;;5024825;28;20351;-30
2023/08/03 03:23:52;;;;;;;6.85;2.47;;;19.40;99.90;;;;;;5025306;28;20236;-30
2023/08/03 03:26:19;;;;;;;3.95;1.55;;;19.40;99.90;;;;;;5024319;28;20204;-30
2023/08/03 03:28:51;;;;;;;4.83;1.67;;;19.40;99.90;;;;;;5024111;28;20299;-30
2023/08/03 03:31:18;;;;;;;4.17;1.50;;;19.40;99.90;;;;;;5024461;28;20263;-30
2023/08/03 03:33:45;;;;;;;5.90;1.57;;;19.40;99.90;;;;;;5025708;28;20270;-30
2023/08/03 03:36:13;;;;;;;5.45;1.52;;;19.40;99.90;;;;;;5024249;28;20307;-30
2023/08/03 03:38:40;;;;;;;4.43;1.65;;;19.50;99.90;;;;;;5024217;28;20272;-30
2023/08/03 03:41:12;;;;;;;3.88;1.40;;;19.50;99.90;;;;;;5026325;28;20201;-30
2023/08/03 03:43:41;;;;;;;8.13;1.77;;;19.50;99.90;;;;;;5026065;28;20520;-31
2023/08/03 03:46:08;;;;;;;4.20;1.42;;;19.50;99.90;;;;;;5026327;28;20516;-30
2023/08/03 03:48:38;;;;;;;7.28;1.55;;;19.50;99.90;;;;;;5024292;28;20299;-30
2023/08/03 03:51:05;;;;;;;5.75;1.52;;;19.50;99.90;;;;;;5024272;28;20271;-30
2023/08/03 03:53:35;;;;;;;4.63;1.60;;;19.50;99.90;;;;;;5024710;28;20258;-30
2023/08/03 03:56:03;;;;;;;8.90;1.53;;;19.50;99.90;;;;;;5025502;28;20776;-30
2023/08/03 03:58:30;;;;;;;4.80;1.40;;;19.40;99.90;;;;;;5025681;28;20197;-30
2023/08/03 04:01:00;;;;;;;6.88;1.80;;;19.40;99.90;;;;;;5022531;28;20679;-30
2023/08/03 04:03:32;;;;;;;6.60;1.73;;;19.40;99.90;;;;;;5026944;28;20205;-30
2023/08/03 04:06:02;;;;;;;7.30;1.80;;;19.40;99.90;;;;;;5025824;28;20216;-30
2023/08/03 04:08:29;;;;;;;7.53;1.88;;;19.40;99.90;;;;;;5024789;28;20205;-30
2023/08/03 04:11:00;;;;;;;4.88;1.35;;;19.40;99.90;;;;;;5025705;28;20291;-30
2023/08/03 04:13:35;;;;;;;7.15;2.15;;;19.40;99.90;;;;;;5026930;28;20681;-30
2023/08/03 04:16:02;;;;;;;3.88;1.40;;;19.50;99.90;;;;;;5024698;28;20212;-30
2023/08/03 04:18:31;;;;;;;4.90;1.67;;;19.50;99.90;;;;;;5020177;28;20209;-30
2023/08/03 04:21:01;;;;;;;6.70;1.60;;;19.50;99.90;;;;;;5007598;28;20210;-30
2023/08/03 04:23:33;;;;;;;3.80;1.38;;;19.50;99.90;;;;;;4999609;28;20287;-30
2023/08/03 04:26:02;;;;;;;3.25;1.23;;;19.50;99.90;;;;;;4997317;28;20220;-30
2023/08/03 04:28:30;;;;;;;7.95;1.60;;;19.50;99.90;;;;;;5004777;28;20296;-30
2023/08/03 04:31:07;;;;;;;2.55;1.38;;;19.50;99.90;;;;;;5016047;28;20228;-31
2023/08/03 04:33:34;;;;;;;4.30;1.55;;;19.50;99.90;;;;;;5023730;28;20567;-30
2023/08/03 04:36:01;;;;;;;4.32;1.75;;;19.50;99.90;;;;;;5025048;28;20228;-30
2023/08/03 04:38:31;;;;;;;4.80;1.83;;;19.50;99.90;;;;;;5018375;28;20225;-30
2023/08/03 04:41:01;;;;;;;4.93;1.40;;;19.50;99.90;;;;;;5019738;28;20241;-30
2023/08/03 04:43:29;;;;;;;4.25;1.70;;;19.50;99.90;;;;;;5004402;28;20556;-30
2023/08/03 04:46:04;;;;;;;5.55;2.30;;;19.50;99.90;;;;;;5014307;28;20611;-30
2023/08/03 04:48:36;;;;;;;6.18;2.05;;;19.50;99.90;;;;;;5024869;28;20201;-30
2023/08/03 04:51:10;;;;;;;3.97;1.40;;;19.50;99.90;;;;;;5028967;28;20671;-30
2023/08/03 04:53:37;;;;;;;5.72;1.77;;;19.50;99.90;;;;;;5027208;28;20197;-30
2023/08/03 04:56:05;;;;;;;2.83;1.20;;;19.50;99.90;;;;;;5022013;28;20252;-30
2023/08/03 04:58:32;;;;;;;7.00;1.58;;;19.50;99.90;;;;;;5011717;28;20213;-30
2023/08/03 05:01:07;;;;;;;4.93;1.60;;;19.50;99.90;;;;;;5016801;28;20683;-30
2023/08/03 05:03:36;;;;;;;4.22;1.40;;;19.50;99.90;;;;;;5033014;28;20211;-30
2023/08/03 05:06:04;;;;;;;4.38;1.67;;;19.50;99.90;;;;;;5029260;28;20261;-30
2023/08/03 05:08:34;;;;;;;5.70;1.48;;;19.50;99.90;;;;;;5021172;28;20715;-30
2023/08/03 05:11:07;;;;;;;6.03;1.73;;;19.50;99.90;;;;;;5033016;28;20596;-30
2023/08/03 05:13:42;;;;;;;4.38;1.77;;;19.60;99.90;;;;;;5024280;28;20662;-30
2023/08/03 05:16:13;;;;;;;4.15;1.65;;;19.50;99.90;;;;;;5023253;28;20637;-30
2023/08/03 05:18:42;;;;;;;5.88;1.90;;;19.50;99.90;;;;;;5024631;28;20205;-30
2023/08/03 05:21:14;;;;;;;5.72;1.30;;;19.50;99.90;;;;;;5025335;28;20205;-30
2023/08/03 05:23:45;;;;;;;4.13;1.48;;;19.50;99.90;;;;;;5026404;28;20687;-30
2023/08/03 05:26:17;;;;;;;4.25;1.55;;;19.50;99.90;;;;;;5027026;28;20244;-31
2023/08/03 05:28:44;;;;;;;7.78;1.90;;;19.50;99.90;;;;;;5023331;28;20201;-30
2023/08/03 05:31:16;;;;;;;5.15;2.00;;;19.50;99.90;;;;;;5009354;28;20220;-30
2023/08/03 05:33:43;;;;;;;6.88;2.08;;;19.50;99.90;;;;;;5014676;28;20201;-30
2023/08/03 05:36:14;;;;;;;6.57;1.83;;;19.50;99.90;;;;;;5027163;28;20907;-30
2023/08/03 05:38:41;;;;;;;4.82;1.38;;;19.50;99.90;;;;;;5011314;28;20723;-29
2023/08/03 05:41:15;;;;;;;4.68;1.60;;;19.50;99.90;;;;;;5008202;28;20226;-30
2023/08/03 05:43:45;;;;;;;3.65;1.02;;;19.50;99.90;;;;;;5013942;28;20291;-30
2023/08/03 05:46:19;;;;;;;2.85;1.23;;;19.50;99.90;;;;;;5019600;28;20216;-30
2023/08/03 05:48:53;;;;;;;1.92;1.17;;;19.50;99.90;;;;;;5016730;28;20215;-30
2023/08/03 05:51:28;;;;;;;2.67;0.90;;;19.50;99.90;;;;;;5018815;28;20200;-30
2023/08/03 05:53:56;;;;;;;4.35;1.30;;;19.40;99.90;;;;;;5012944;28;20209;-28
2023/08/03 05:56:27;;;;;;;3.20;0.98;;;19.40;99.90;;;;;;5008294;28;20279;-29
2023/08/03 05:58:56;;;;;;;3.22;1.13;;;19.40;99.90;;;;;;5015674;28;20197;-30
2023/08/03 06:01:24;;;;;;;5.32;1.30;;;19.40;99.90;;;;;;5006138;28;20468;-30
2023/08/03 06:03:55;;;;;;;4.35;1.10;;;19.40;99.90;;;;;;5009724;28;20216;-30
2023/08/03 06:06:25;;;;;;;6.25;1.40;;;19.40;99.90;;;;;;5016449;28;20308;-30
2023/08/03 06:08:57;;;;;;;5.22;1.48;;;19.40;99.90;;;;;;5017841;28;20611;-29
2023/08/03 06:11:25;;;;;;;3.67;1.55;;;19.40;99.90;;;;;;5021182;28;20232;-30
2023/08/03 06:13:56;;;;;;;3.25;1.40;;;19.40;99.90;;;;;;5011216;28;20244;-30
2023/08/03 06:16:24;;;;;;;3.50;1.55;;;19.40;99.90;;;;;;5016765;28;20220;-30
2023/08/03 06:18:54;;;;;;;2.73;1.13;;;19.40;99.90;;;;;;5023011;28;20204;-30
2023/08/03 06:21:29;;;;;;;2.47;1.23;;;19.40;99.90;;;;;;5011436;28;20205;-30
2023/08/03 06:24:01;;;;;;;1.92;1.05;;;19.40;99.90;;;;;;5027813;28;20223;-30
2023/08/03 06:26:37;;;;;;;5.38;1.50;;;19.40;99.90;;;;;;5027570;28;20543;-29
2023/08/03 06:29:09;;;;;;;8.52;1.52;;;19.40;99.90;;;;;;5010707;28;20236;-29
2023/08/03 06:31:43;;;;;;;3.13;1.15;;;19.50;99.90;;;;;;5009153;28;20246;-29
2023/08/03 06:34:17;;;;;;;8.60;1.00;;;19.50;99.90;;;;;;5019169;28;20736;-29
2023/08/03 06:36:44;;;;;;;5.95;1.27;;;19.50;99.90;;;;;;5021273;28;20646;-30
2023/08/03 06:39:11;;;;;;;1.88;1.00;;;19.50;99.90;;;;;;5006916;28;20571;-29
2023/08/03 06:41:39;;;;;;;4.75;1.23;;;19.60;99.90;;;;;;5007522;28;20256;-30
2023/08/03 06:44:06;;;;;;;2.47;0.90;;;19.60;99.90;;;;;;5034792;28;20208;-30
2023/08/03 06:46:48;;;;;;;5.07;1.30;;;19.60;99.90;;;;;;5021499;28;20209;-30
2023/08/03 06:49:20;;;;;;;2.67;0.90;;;19.60;99.90;;;;;;5033738;28;20787;-30
2023/08/03 06:51:50;;;;;;;2.90;1.08;;;19.60;99.90;;;;;;5022899;28;20229;-30
2023/08/03 06:54:19;;;;;;;3.03;0.95;;;19.60;99.90;;;;;;5022395;28;20235;-30
2023/08/03 06:56:46;;;;;;;3.17;1.35;;;19.60;99.90;;;;;;5026639;28;20306;-30
2023/08/03 06:59:20;;;;;;;2.42;1.23;;;19.60;99.90;;;;;;5010153;28;20213;-30
2023/08/03 07:01:51;;;;;;;2.03;1.10;;;19.60;99.90;;;;;;5021377;28;20227;-30
2023/08/03 07:04:20;;;;;;;5.10;1.50;;;19.70;99.90;;;;;;5047308;28;20258;-30
2023/08/03 07:06:48;;;;;;;6.57;1.55;;;19.70;99.90;;;;;;5045882;28;20290;-29
2023/08/03 07:09:17;;;;;;;4.32;1.30;;;19.70;99.90;;;;;;5046994;28;20498;-30
2023/08/03 07:11:46;;;;;;;3.20;1.38;;;19.70;99.90;;;;;;5040189;28;20225;-30
2023/08/03 07:14:18;;;;;;;5.20;1.52;;;19.70;99.90;;;;;;4991133;28;20762;-30
2023/08/03 07:16:50;;;;;;;4.47;1.20;;;19.70;99.90;;;;;;5027285;28;20221;-30
2023/08/03 07:19:22;;;;;;;3.53;1.40;;;19.70;99.90;;;;;;5023178;28;20235;-30
2023/08/03 07:21:51;;;;;;;7.10;1.55;;;19.70;99.90;;;;;;5014462;28;20259;-30
2023/08/03 07:24:18;;;;;;;6.38;1.88;;;19.70;99.90;;;;;;5003051;28;20489;-30
2023/08/03 07:26:49;;;;;;;3.72;1.30;;;19.70;99.90;;;;;;5009383;28;20206;-30
2023/08/03 07:29:16;;;;;;;6.38;1.65;;;19.70;99.90;;;;;;5007715;28;20684;-30
2023/08/03 07:31:44;;;;;;;6.55;1.85;;;19.70;99.90;;;;;;5025301;28;20306;-30
2023/08/03 07:34:14;;;;;;;6.45;1.58;;;19.70;99.90;;;;;;5025609;28;20312;-30
2023/08/03 07:36:41;;;;;;;5.10;1.95;;;19.70;99.90;;;;;;5025907;28;20237;-30
2023/08/03 07:39:11;;;;;;;4.60;1.50;;;19.70;99.90;;;;;;5025100;28;20264;-30
2023/08/03 07:41:38;;;;;;;7.70;1.92;;;19.70;99.90;;;;;;5009765;28;20209;-30
2023/08/03 07:44:07;;;;;;;6.15;1.85;;;19.80;99.90;;;;;;5027322;28;20204;-29
2023/08/03 07:46:42;;;;;;;4.88;1.60;;;19.80;99.90;;;;;;5023946;28;20240;-29
2023/08/03 07:49:13;;;;;;;5.65;1.85;;;19.90;99.90;;;;;;5006113;28;20209;-30
2023/08/03 07:51:40;;;;;;;5.60;1.80;;;19.90;99.90;;;;;;5035711;28;20212;-30
2023/08/03 07:54:07;;;;;;;4.35;1.70;;;19.90;99.90;;;;;;5020770;28;20223;-30
2023/08/03 07:56:37;;;;;;;6.00;1.90;;;19.90;99.90;;;;;;5024551;28;20224;-30
2023/08/03 07:59:06;;;;;;;5.30;2.13;;;20.00;99.90;;;;;;5015474;28;20227;-30
2023/08/03 08:01:33;;;;;;;5.13;2.05;;;20.00;99.90;;;;;;5013796;28;20251;-30
2023/08/03 08:04:02;;;;;;;4.32;1.70;;;20.00;99.90;;;;;;5022946;28;20228;-30
2023/08/03 08:06:32;;;;;;;7.28;1.67;;;20.00;99.90;;;;;;5009156;28;20221;-30
2023/08/03 08:08:59;;;;;;;7.40;2.00;;;20.10;99.90;;;;;;5014026;28;20581;-30
2023/08/03 08:11:29;;;;;;;4.07;1.90;;;20.10;99.90;;;;;;5045591;28;20295;-24
2023/08/03 08:13:57;;;;;;;7.95;2.47;;;20.10;99.90;;;;;;5040273;28;20204;-24
2023/08/03 08:16:24;;;;;;;7.53;2.10;;;20.10;99.90;;;;;;5007021;28;20232;-24
2023/08/03 08:18:51;;;;;;;7.45;2.20;;;20.10;99.90;;;;;;5011387;28;20229;-24
2023/08/03 08:21:18;;;;;;;5.93;1.90;;;20.20;99.90;;;;;;5019787;28;20205;-24
2023/08/03 08:23:46;;;;;;;8.23;1.98;;;20.20;99.90;;;;;;5014058;28;20655;-24
2023/08/03 08:26:17;;;;;;;8.13;2.28;;;20.20;99.90;;;;;;5031752;28;20221;-24
2023/08/03 08:28:47;;;;;;;5.80;2.17;;;20.20;99.90;;;;;;5035595;28;20536;-24
2023/08/03 08:31:30;;;;;;;7.03;2.15;;;20.30;99.90;;;;;;5030495;28;20204;-24
2023/08/03 08:34:00;;;;;;;7.07;2.00;;;20.30;99.90;;;;;;5028751;28;20234;-24
2023/08/03 08:36:27;;;;;;;6.95;2.53;;;20.30;99.90;;;;;;5028302;28;20217;-24
2023/08/03 08:38:57;;;;;;;5.40;1.80;;;20.30;99.90;;;;;;5025248;28;20584;-24
2023/08/03 08:41:24;;;;;;;6.00;2.17;;;20.30;99.90;;;;;;5010965;28;20232;-24
2023/08/03 08:43:51;;;;;;;10.13;2.25;;;20.30;99.90;;;;;;5009169;28;20221;-24
2023/08/03 08:46:24;;;;;;;5.93;2.00;;;20.20;99.90;;;;;;5027001;28;20251;-24
2023/08/03 08:48:51;;;;;;;5.78;2.15;;;20.20;99.90;;;;;;5027354;28;20185;-24
2023/08/03 08:51:21;;;;;;;7.22;2.40;;;20.20;99.90;;;;;;5035429;28;20200;-24
2023/08/03 08:53:53;;;;;;;9.80;2.42;;;20.20;99.90;;;;;;5031894;28;20225;-24
2023/08/03 08:56:25;;;;;;;11.32;2.28;;;20.20;99.90;;;;;;5029472;28;20695;-24
2023/08/03 08:58:55;;;;;;;7.22;2.30;;;20.20;99.90;;;;;;5028250;28;20195;-24
2023/08/03 09:01:26;;;;;;;6.53;2.30;;;20.20;99.90;;;;;;5009628;28;20695;-24
2023/08/03 09:03:58;;;;;;;9.60;2.40;;;20.30;99.90;;;;;;5004319;28;20276;-24
2023/08/03 09:06:29;;;;;;;9.93;2.38;;;20.30;99.90;;;;;;5026051;28;20255;-24
2023/08/03 09:08:58;;;;;;;8.32;2.75;;;20.30;99.90;;;;;;5010007;28;20190;-24
2023/08/03 09:11:41;;;;;;;8.52;2.08;;;20.30;99.90;;;;;;5014619;28;20735;-24
2023/08/03 09:14:14;;;;;;;9.40;2.42;;;20.40;99.90;;;;;;5022782;28;20201;-24
2023/08/03 09:16:49;;;;;;;7.78;2.13;;;20.40;99.90;;;;;;5020658;28;20197;-24
2023/08/03 09:19:35;;;;;;;8.80;2.95;;;20.40;99.90;;;;;;5028086;28;20591;-24
2023/08/03 09:22:05;;;;;;;8.07;2.50;;;20.40;99.90;;;;;;5028728;28;20891;-24
2023/08/03 09:24:34;;;;;;;8.07;3.10;;;20.50;99.90;;;;;;5023664;28;20289;-24
2023/08/03 09:27:04;;;;;;;6.90;2.13;;;20.50;99.90;;;;;;5024885;28;20209;-24
2023/08/03 09:29:34;;;;;;;6.05;2.20;;;20.50;99.90;;;;;;5027650;28;20212;-24
2023/08/03 09:32:05;;;;;;;7.82;1.92;;;20.50;99.90;;;;;;5011847;28;20214;-24
2023/08/03 09:34:42;;;;;;;10.18;2.88;;;20.50;99.90;;;;;;5027744;28;20602;-24
2023/08/03 09:37:11;;;;;;;8.13;1.85;;;20.50;99.90;;;;;;5025487;28;20586;-25
2023/08/03 09:39:54;;;;;;;8.35;2.05;;;20.50;99.90;;;;;;5044110;28;20315;-24
2023/08/03 09:42:24;;;;;;;8.32;2.08;;;20.50;99.90;;;;;;5038625;28;20693;-24
2023/08/03 09:45:02;;;;;;;6.90;2.08;;;20.50;99.90;;;;;;5027829;28;20651;-31
2023/08/03 09:47:39;;;;;;;5.90;2.17;;;20.50;99.90;;;;;;5024349;28;20212;-31
2023/08/03 09:50:08;;;;;;;10.18;2.40;;;20.50;99.90;;;;;;5027641;28;20204;-31
2023/08/03 09:52:56;;;;;;;8.05;2.22;;;20.60;99.90;;;;;;5018683;28;20197;-31
2023/08/03 09:55:28;;;;;;;6.82;1.80;;;20.60;99.90;;;;;;5017282;28;20707;-31
2023/08/03 09:58:08;;;;;;;6.78;1.90;;;20.60;99.90;;;;;;5024056;28;20208;-31
2023/08/03 10:00:36;;;;;;;9.10;2.22;;;20.60;99.90;;;;;;5047777;28;20626;-31
2023/08/03 10:03:09;;;;;;;8.82;2.13;;;20.60;99.90;;;;;;5027098;28;20591;-24
2023/08/03 10:05:40;;;;;;;11.38;2.53;;;20.70;99.90;;;;;;5027201;28;20229;-24
2023/08/03 10:08:45;;;;;;;8.80;2.08;;;20.70;99.90;;;;;;5027301;28;20310;-24
2023/08/03 10:11:15;;;;;;;11.15;2.65;;;20.70;99.90;;;;;;5031284;28;20275;-24
2023/08/03 10:13:49;;;;;;;8.73;2.20;;;20.70;99.90;;;;;;5025639;28;20416;-24
2023/08/03 10:16:18;;;;;;;3.83;1.75;;;20.70;99.90;;;;;;5039625;28;20205;-24
2023/08/03 10:18:46;;;;;;;8.88;2.28;;;20.70;99.90;;;;;;5027825;28;20220;-24
2023/08/03 10:21:26;;;;;;;9.32;2.35;;;20.60;99.90;;;;;;4997064;28;20313;-24
2023/08/03 10:24:18;;;;;;;9.85;2.42;;;20.50;99.90;;;;;;5008535;28;20232;-24
2023/08/03 10:26:56;;;;;;;9.32;2.95;;;20.50;99.90;;;;;;5008909;28;20204;-24
2023/08/03 10:30:03;;;;;;;7.97;2.30;;;20.50;99.90;;;;;;5006902;28;20229;-24
2023/08/03 10:32:33;;;;;;;6.93;1.98;;;20.50;99.90;;;;;;5008745;28;20353;-24
2023/08/03 10:35:35;;;;;;;11.38;2.53;;;20.50;99.90;;;;;;5019195;28;20227;-24
2023/08/03 10:38:19;;;;;;;7.18;2.05;;;20.50;99.90;;;;;;5035856;28;20746;-24
2023/08/03 10:40:46;;;;;;;7.20;2.28;;;20.60;99.90;;;;;;5024699;28;20996;-24
2023/08/03 10:43:13;;;;;;;6.68;1.98;;;20.50;99.90;;;;;;5026385;28;20733;-24
2023/08/03 10:45:41;;;;;;;6.85;1.75;;;20.50;99.90;;;;;;5028021;28;20933;-24
2023/08/03 10:48:29;;;;;;;9.70;2.05;;;20.60;99.90;;;;;;5026785;28;20204;-24
2023/08/03 10:51:03;;;;;;;5.25;1.95;;;20.60;99.90;;;;;;5024317;28;20373;-23
2023/08/03 10:53:33;;;;;;;3.97;1.55;;;20.60;99.90;;;;;;5009218;28;20209;-23
2023/08/03 10:56:05;;;;;;;6.32;1.88;;;20.60;99.90;;;;;;5008766;28;20747;-24
2023/08/03 10:58:47;;;;;;;5.10;2.00;;;20.50;99.90;;;;;;5008218;28;20604;-24
2023/08/03 11:01:26;;;;;;;6.55;1.75;;;20.50;99.90;;;;;;5025160;28;20199;-23
2023/08/03 11:03:58;;;;;;;3.25;1.73;;;20.50;99.90;;;;;;5014035;28;20952;-23
2023/08/03 11:06:33;;;;;;;3.88;1.63;;;20.50;99.90;;;;;;5020342;28;20693;-24
2023/08/03 11:09:01;;;;;;;5.72;1.60;;;20.50;99.90;;;;;;5023637;28;20254;-24
2023/08/03 11:11:34;;;;;;;4.22;1.67;;;20.50;99.90;;;;;;5020522;28;20205;-24
2023/08/03 11:14:13;;;;;;;4.93;2.30;;;20.50;99.90;;;;;;5022477;28;20255;-24
2023/08/03 11:16:48;;;;;;;4.45;2.45;;;20.50;99.90;;;;;;5013612;28;20210;-24
2023/08/03 11:19:21;;;;;;;5.00;2.25;;;20.50;99.90;;;;;;5022250;28;20666;-24
2023/08/03 11:21:50;;;;;;;3.70;2.15;;;20.60;99.90;;;;;;5019318;28;20758;-24
2023/08/03 11:24:17;;;;;;;8.57;2.67;;;20.60;99.90;;;;;;5012757;28;20297;-24
2023/08/03 11:26:44;;;;;;;4.43;2.00;;;20.60;99.90;;;;;;5021054;28;20259;-24
2023/08/03 11:29:12;;;;;;;4.50;1.95;;;20.60;99.90;;;;;;4997465;28;20374;-24
2023/08/03 11:31:42;;;;;;;4.65;2.00;;;20.60;99.90;;;;;;5021134;28;21034;-24
2023/08/03 11:34:10;;;;;;;4.80;1.70;;;20.60;99.90;;;;;;5020382;28;20205;-23
2023/08/03 11:36:39;;;;;;;4.32;1.90;;;20.70;99.90;;;;;;5007178;28;20205;-24
2023/08/03 11:39:08;;;;;;;5.47;1.70;;;20.70;99.90;;;;;;5015822;28;20276;-24
2023/08/03 11:41:36;;;;;;;6.35;1.77;;;20.70;99.90;;;;;;5009801;28;20202;-24
2023/08/03 11:44:06;;;;;;;3.25;1.40;;;20.70;99.90;;;;;;5028836;28;20266;-24
2023/08/03 11:46:35;;;;;;;3.22;1.30;;;20.70;99.90;;;;;;5022331;28;20680;-24
2023/08/03 11:49:03;;;;;;;3.45;1.50;;;20.70;99.90;;;;;;5031116;28;20238;-24
2023/08/03 11:51:38;;;;;;;3.95;1.35;;;20.60;99.90;;;;;;5024159;28;20229;-24
2023/08/03 11:54:06;;;;;;;4.43;1.13;;;20.70;99.90;;;;;;5008745;28;20330;-24
2023/08/03 11:56:35;;;;;;;2.78;1.20;;;20.60;99.90;;;;;;5003780;28;20581;-24
2023/08/03 11:59:08;;;;;;;2.58;1.23;;;20.60;99.90;;;;;;5019030;28;20251;-24
2023/08/03 12:01:51;;;;;;;4.47;1.50;;;20.60;99.90;;;;;;5029725;28;20583;-24
2023/08/03 12:04:26;;;;;;;3.33;1.35;;;20.60;99.90;;;;;;5016476;28;20208;-24
2023/08/03 12:06:54;;;;;;;4.13;1.60;;;20.60;99.90;;;;;;5018387;28;20212;-24
2023/08/03 12:09:26;;;;;;;2.80;1.30;;;20.60;99.90;;;;;;5021142;28;20211;-24
2023/08/03 12:12:03;;;;;;;4.95;1.60;;;20.60;99.90;;;;;;5018645;28;20208;-24
2023/08/03 12:14:31;;;;;;;1.95;1.15;;;20.60;99.90;;;;;;5018523;28;20465;-24
2023/08/03 12:17:01;;;;;;;4.53;1.33;;;20.50;99.90;;;;;;5013372;28;20569;-24
2023/08/03 12:19:34;;;;;;;4.05;1.58;;;20.50;99.90;;;;;;5032308;28;20216;-24
2023/08/03 12:22:02;;;;;;;3.97;1.40;;;20.50;99.90;;;;;;5013863;28;20255;-24
2023/08/03 12:24:34;;;;;;;2.85;1.40;;;20.50;99.90;;;;;;5014786;28;20234;-24
2023/08/03 12:27:02;;;;;;;1.98;1.20;;;20.50;99.90;;;;;;5014238;28;20327;-24
2023/08/03 12:29:41;;;;;;;2.85;1.15;;;20.50;99.90;;;;;;5011866;28;20196;-24
2023/08/03 12:32:08;;;;;;;3.92;1.30;;;20.50;99.90;;;;;;5013796;28;20209;-24
2023/08/03 12:34:36;;;;;;;3.10;1.13;;;20.50;99.90;;;;;;5034155;28;20288;-24
2023/08/03 12:37:03;;;;;;;3.92;1.60;;;20.50;99.90;;;;;;4990650;28;20216;-24
2023/08/03 12:39:33;;;;;;;2.22;1.02;;;20.50;99.90;;;;;;5015336;28;20220;-23
2023/08/03 12:42:05;;;;;;;2.70;1.65;;;20.50;99.90;;;;;;5008637;28;20204;-24
2023/08/03 12:44:32;;;;;;;3.10;1.33;;;20.50;99.90;;;;;;5024731;28;20205;-24
2023/08/03 12:47:00;;;;;;;4.70;1.80;;;20.50;99.90;;;;;;5017610;28;20217;-24
2023/08/03 12:49:27;;;;;;;2.42;1.58;;;20.60;99.90;;;;;;5010580;28;20194;-24
2023/08/03 12:51:54;;;;;;;2.63;1.50;;;20.60;99.90;;;;;;5017093;28;20205;-23
2023/08/03 12:54:27;;;;;;;4.60;1.65;;;20.70;99.90;;;;;;5008147;28;20213;-24
2023/08/03 12:56:55;;;;;;;3.70;1.85;;;20.70;99.90;;;;;;5019154;28;20233;-24
2023/08/03 12:59:23;;;;;;;4.25;1.67;;;20.70;99.90;;;;;;5022561;28;20315;-24
2023/08/03 13:01:56;;;;;;;4.13;1.83;;;20.80;99.90;;;;;;5004934;28;20750;-24
2023/08/03 13:04:23;;;;;;;2.95;1.58;;;20.90;99.90;;;;;;5017228;28;20255;-24